LFPB/LBG METAR and TAF weather

Enter ICAO airport designator
Station Type Date Time Source
LFPB METAR 2021/05/11 22:30 UTC NOAA

LFPB 112230Z AUTO 24009KT 200V260 CAVOK 12/06 Q1013 NOSIG


Station Type Date Time Source
LFPB Decoded METAR 2021/05/11 22:30 UTC NOAA

Paris / Le Bourget, France (LFPB) 48-58N 002-27E 65M
May 11, 2021 - 06:30 PM EDT / 2021.05.11 2230 UTC
Wind: from the WSW (240 degrees) at 10 MPH (9 KT) (direction variable):0
Visibility: greater than 7 mile(s):0
Temperature: 53 F (12 C)
Dew Point: 42 F (6 C)
Relative Humidity: 66%
Pressure (altimeter): 29.91 in. Hg (1013 hPa)
ob: LFPB 112230Z AUTO 24009KT 200V260 CAVOK 12/06 Q1013 NOSIG
cycle: 22

Station Type Date Time Source
LFPB TAF 2021/05/11 18:21 UTC NOAA

TAF LFPB 111700Z 1118/1218 24008KT CAVOK PROB40
TEMPO 1205/1208 BKN008 PROB30
TEMPO 1205/1207 4000 BR BKN004 PROB30
TEMPO 1213/1216 4000 SHRA SCT040TCU

Example: see airport list